createdAt,value
2023-03-02T00:01:37.819Z,35.72
2023-03-02T00:04:08.007Z,33.13
2023-03-02T00:06:36.571Z,31.02
2023-03-02T00:09:05.996Z,36.10
2023-03-02T00:11:37.515Z,38.03
2023-03-02T00:14:05.163Z,38.28
2023-03-02T00:16:33.266Z,37.58
2023-03-02T00:19:00.412Z,41.72
2023-03-02T00:21:27.728Z,39.22
2023-03-02T00:23:54.836Z,41.63
2023-03-02T00:26:22.070Z,45.05
2023-03-02T00:28:49.181Z,37.45
2023-03-02T00:31:16.423Z,40.38
2023-03-02T00:33:43.579Z,42.83
2023-03-02T00:36:19.033Z,45.15
2023-03-02T00:38:46.318Z,44.83
2023-03-02T00:41:15.271Z,52.17
2023-03-02T00:43:42.328Z,42.55
2023-03-02T00:46:14.910Z,46.10
2023-03-02T00:48:42.772Z,44.08
2023-03-02T00:51:10.821Z,45.55
2023-03-02T00:53:38.529Z,38.67
2023-03-02T00:56:06.515Z,44.55
2023-03-02T00:58:34.321Z,42.00
2023-03-02T01:01:07.522Z,41.28
2023-03-02T01:03:35.070Z,47.97
2023-03-02T01:06:02.575Z,43.75
2023-03-02T01:08:29.708Z,41.03
2023-03-02T01:10:57.681Z,47.08
2023-03-02T01:13:24.728Z,45.85
2023-03-02T01:16:00.361Z,47.80
2023-03-02T01:18:27.981Z,55.83
2023-03-02T01:21:21.230Z,49.53
2023-03-02T01:23:48.263Z,43.53
2023-03-02T01:26:15.336Z,51.10
2023-03-02T01:28:42.392Z,46.97
2023-03-02T01:31:09.726Z,43.40
2023-03-02T01:33:36.807Z,45.08
2023-03-02T01:36:04.268Z,49.15
2023-03-02T01:38:31.328Z,50.15
2023-03-02T01:40:59.068Z,44.30
2023-03-02T01:43:26.391Z,48.45
2023-03-02T01:46:08.251Z,44.97
2023-03-02T01:48:43.889Z,44.90
2023-03-02T01:51:15.826Z,52.55
2023-03-02T01:53:46.733Z,48.42
2023-03-02T01:56:17.519Z,48.70
2023-03-02T01:58:45.982Z,44.17
2023-03-02T02:01:16.193Z,39.13
2023-03-02T02:03:46.142Z,41.42
2023-03-02T02:06:23.140Z,37.90
2023-03-02T02:08:51.633Z,39.22
2023-03-02T02:11:19.130Z,40.42
2023-03-02T02:13:46.447Z,38.75
2023-03-02T02:16:14.103Z,42.45
2023-03-02T02:18:41.858Z,36.08
2023-03-02T02:21:09.423Z,44.63
2023-03-02T02:23:42.614Z,44.35
2023-03-02T02:26:18.285Z,38.60
2023-03-02T02:29:07.907Z,43.35
2023-03-02T02:32:03.622Z,39.65
2023-03-02T02:34:35.419Z,46.65
2023-03-02T02:37:14.497Z,43.17
2023-03-02T02:39:45.870Z,35.70
2023-03-02T02:42:18.051Z,43.47
2023-03-02T02:44:45.386Z,46.70
2023-03-02T02:47:17.504Z,43.60
2023-03-02T02:49:46.501Z,45.42
2023-03-02T02:52:20.611Z,40.92
2023-03-02T02:54:51.574Z,46.88
2023-03-02T02:57:20.880Z,40.20
2023-03-02T02:59:55.330Z,44.83
2023-03-02T03:02:25.856Z,40.45
2023-03-02T03:05:02.470Z,42.97
2023-03-02T03:07:31.921Z,39.17
2023-03-02T03:10:13.904Z,42.22
2023-03-02T03:12:42.590Z,44.28
2023-03-02T03:15:11.301Z,40.50
2023-03-02T03:17:38.340Z,39.47
2023-03-02T03:20:09.285Z,42.10
2023-03-02T03:22:39.674Z,39.72
2023-03-02T03:25:06.953Z,37.47
2023-03-02T03:27:34.006Z,44.83
2023-03-02T03:30:01.935Z,43.05
2023-03-02T03:32:29.039Z,34.63
2023-03-02T03:34:56.467Z,38.20
2023-03-02T03:37:23.992Z,45.58
2023-03-02T03:39:51.197Z,33.28
2023-03-02T03:42:18.225Z,37.20
2023-03-02T03:44:45.533Z,36.05
2023-03-02T03:47:12.728Z,44.83
2023-03-02T03:49:39.796Z,35.60
2023-03-02T03:52:06.953Z,38.67
2023-03-02T03:54:34.107Z,49.38
2023-03-02T03:57:01.160Z,37.47
2023-03-02T03:59:29.057Z,38.10
2023-03-02T04:01:58.983Z,32.33
2023-03-02T04:04:29.044Z,34.47
2023-03-02T04:06:56.884Z,34.75
2023-03-02T04:09:25.244Z,37.65
2023-03-02T04:11:55.083Z,39.25
2023-03-02T04:14:23.712Z,36.00
2023-03-02T04:16:51.343Z,37.53
2023-03-02T04:19:18.788Z,36.00
2023-03-02T04:21:49.153Z,32.40
2023-03-02T04:24:17.480Z,36.58
2023-03-02T04:26:45.734Z,35.53
2023-03-02T04:29:13.526Z,40.30
2023-03-02T04:31:40.968Z,34.17
2023-03-02T04:34:09.063Z,35.30
2023-03-02T04:36:39.616Z,37.00
2023-03-02T04:39:07.963Z,37.60
2023-03-02T04:41:35.300Z,33.30
2023-03-02T04:44:02.861Z,48.72
2023-03-02T04:46:30.107Z,37.88
2023-03-02T04:48:57.334Z,32.58
2023-03-02T04:51:28.750Z,31.40
2023-03-02T04:53:58.602Z,38.13
2023-03-02T04:56:26.067Z,38.90
2023-03-02T04:58:53.429Z,31.77
2023-03-02T05:01:20.768Z,39.85
2023-03-02T05:03:48.607Z,37.78
2023-03-02T05:06:16.604Z,37.20
2023-03-02T05:08:44.155Z,41.80
2023-03-02T05:11:22.004Z,39.28
2023-03-02T05:13:50.896Z,30.48
2023-03-02T05:16:19.078Z,46.83
2023-03-02T05:18:47.061Z,35.58
2023-03-02T05:21:15.788Z,37.78
2023-03-02T05:23:43.892Z,33.50
2023-03-02T05:26:11.188Z,37.05
2023-03-02T05:28:38.965Z,39.83
2023-03-02T05:31:06.583Z,47.63
2023-03-02T05:33:34.262Z,43.13
2023-03-02T05:36:02.349Z,38.35
2023-03-02T05:38:31.813Z,36.00
2023-03-02T05:40:58.982Z,33.60
2023-03-02T05:43:26.080Z,39.42
2023-03-02T05:45:53.218Z,39.65
2023-03-02T05:48:20.545Z,35.35
2023-03-02T05:50:47.621Z,33.70
2023-03-02T05:53:14.739Z,44.03
2023-03-02T05:55:41.804Z,39.40
2023-03-02T05:58:14.524Z,37.35
2023-03-02T06:00:41.922Z,41.00
2023-03-02T06:03:09.290Z,33.17
2023-03-02T06:05:36.930Z,40.63
2023-03-02T06:08:04.668Z,32.60
2023-03-02T06:10:33.530Z,45.35
2023-03-02T06:13:00.956Z,37.30
2023-03-02T06:15:29.682Z,40.03
2023-03-02T06:17:58.466Z,38.17
2023-03-02T06:20:26.177Z,40.08
2023-03-02T06:22:53.333Z,35.35
2023-03-02T06:25:22.956Z,43.17
2023-03-02T06:27:51.661Z,37.38
2023-03-02T06:30:21.879Z,37.88
2023-03-02T06:32:49.005Z,39.95
2023-03-02T06:35:16.636Z,34.85
2023-03-02T06:37:44.426Z,34.92
2023-03-02T06:40:13.589Z,39.75
2023-03-02T06:42:41.990Z,39.60
2023-03-02T06:45:10.165Z,35.90
2023-03-02T06:47:37.311Z,36.78
2023-03-02T06:50:05.068Z,41.22
2023-03-02T06:52:32.245Z,38.47
2023-03-02T06:54:59.272Z,39.97
2023-03-02T06:57:33.522Z,41.47
2023-03-02T07:00:02.603Z,40.22
2023-03-02T07:02:29.835Z,36.67
2023-03-02T07:04:59.211Z,42.30
2023-03-02T07:07:26.814Z,34.88
2023-03-02T07:09:53.989Z,34.60
2023-03-02T07:12:21.206Z,41.42
2023-03-02T07:14:48.227Z,34.83
2023-03-02T07:17:15.348Z,42.53
2023-03-02T07:19:42.449Z,41.28
2023-03-02T07:22:09.508Z,40.92
2023-03-02T07:24:36.634Z,38.58
2023-03-02T07:27:04.507Z,49.97
2023-03-02T07:29:32.005Z,40.05
2023-03-02T07:32:01.945Z,40.10
2023-03-02T07:34:29.235Z,44.13
2023-03-02T07:36:56.382Z,41.20
2023-03-02T07:39:23.966Z,38.53
2023-03-02T07:41:51.136Z,39.55
2023-03-02T07:44:18.244Z,44.28
2023-03-02T07:46:45.567Z,48.15
2023-03-02T07:49:12.636Z,39.53
2023-03-02T07:51:39.719Z,40.72
2023-03-02T07:54:06.743Z,41.45
2023-03-02T07:56:33.992Z,33.70
2023-03-02T07:59:04.620Z,36.85
2023-03-02T08:01:32.364Z,35.88
2023-03-02T08:03:59.619Z,32.80
2023-03-02T08:06:29.032Z,29.70
2023-03-02T08:08:56.401Z,33.42
2023-03-02T08:11:23.573Z,45.13
2023-03-02T08:13:50.711Z,29.73
2023-03-02T08:16:17.866Z,29.10
2023-03-02T08:18:45.019Z,36.47
2023-03-02T08:21:20.060Z,35.25
2023-03-02T08:23:47.579Z,35.65
2023-03-02T08:26:17.418Z,34.25
2023-03-02T08:28:44.996Z,28.63
2023-03-02T08:31:13.341Z,32.75
2023-03-02T08:33:40.516Z,32.83
2023-03-02T08:36:12.517Z,29.10
2023-03-02T08:38:39.723Z,28.67
2023-03-02T08:41:10.928Z,35.35
2023-03-02T08:43:37.975Z,28.73
2023-03-02T08:46:05.791Z,26.00
2023-03-02T08:48:32.994Z,31.23
2023-03-02T08:51:02.036Z,28.83
2023-03-02T08:53:32.114Z,28.30
2023-03-02T08:55:59.257Z,27.58
2023-03-02T08:58:26.380Z,30.33
2023-03-02T09:00:53.460Z,26.90
2023-03-02T09:03:20.644Z,28.30
2023-03-02T09:05:47.724Z,28.23
2023-03-02T09:08:14.797Z,34.30
2023-03-02T09:10:41.864Z,30.02
2023-03-02T09:13:08.977Z,33.78
2023-03-02T09:15:36.094Z,31.40
2023-03-02T09:18:03.161Z,28.95
2023-03-02T09:20:31.110Z,28.42
2023-03-02T09:22:59.180Z,33.20
2023-03-02T09:25:26.222Z,27.58
2023-03-02T09:27:53.318Z,30.25
2023-03-02T09:30:20.609Z,26.13
2023-03-02T09:32:49.103Z,33.22
2023-03-02T09:35:16.329Z,22.33
2023-03-02T09:37:44.504Z,31.35
2023-03-02T09:40:30.136Z,30.77
2023-03-02T09:43:18.779Z,23.95
2023-03-02T09:46:10.535Z,26.75
2023-03-02T09:48:52.285Z,23.48
2023-03-02T09:51:35.976Z,25.83
2023-03-02T09:54:14.590Z,25.15
2023-03-02T09:56:52.569Z,27.88
2023-03-02T09:59:41.750Z,26.02
2023-03-02T10:02:29.193Z,25.95
2023-03-02T10:05:02.266Z,23.98
2023-03-02T10:07:32.540Z,25.33
2023-03-02T10:10:09.461Z,25.05
2023-03-02T10:13:15.256Z,21.70
2023-03-02T10:15:56.059Z,21.83
2023-03-02T10:18:36.996Z,17.65
2023-03-02T10:21:12.910Z,20.70
2023-03-02T10:23:48.202Z,22.38
2023-03-02T10:26:26.035Z,20.30
2023-03-02T10:29:22.657Z,20.85
2023-03-02T10:31:58.465Z,22.52
2023-03-02T10:34:30.987Z,26.38
2023-03-02T10:37:00.974Z,22.83
2023-03-02T10:39:28.593Z,18.58
2023-03-02T10:42:02.333Z,20.25
2023-03-02T10:49:36.623Z,23.02
2023-03-02T10:52:05.264Z,21.00
2023-03-02T10:54:36.798Z,15.93
2023-03-02T10:57:19.917Z,21.05
2023-03-02T10:59:48.034Z,18.17
2023-03-02T11:02:23.276Z,19.88
2023-03-02T11:04:58.622Z,14.13
2023-03-02T11:07:28.488Z,18.70
2023-03-02T11:10:06.097Z,11.45
2023-03-02T11:12:36.704Z,14.20
2023-03-02T11:15:25.372Z,17.98
2023-03-02T11:18:25.253Z,18.88
2023-03-02T11:21:02.281Z,18.20
2023-03-02T11:23:54.050Z,18.48
2023-03-02T11:26:25.895Z,14.27
2023-03-02T11:29:10.502Z,21.30
2023-03-02T11:31:41.946Z,14.90
2023-03-02T11:34:33.842Z,16.30
2023-03-02T11:37:16.709Z,12.77
2023-03-02T11:39:55.610Z,18.13
2023-03-02T11:42:32.309Z,16.77
2023-03-02T11:45:16.733Z,17.52
2023-03-02T11:48:02.632Z,14.95
2023-03-02T11:50:34.621Z,12.60
2023-03-02T11:53:06.831Z,14.40
2023-03-02T11:55:48.436Z,13.57
2023-03-02T11:58:21.568Z,18.30
2023-03-02T12:00:49.931Z,12.30
2023-03-02T12:03:16.992Z,11.93
2023-03-02T12:05:47.616Z,15.65
2023-03-02T12:08:20.532Z,9.93
2023-03-02T12:10:56.859Z,17.33
2023-03-02T12:13:44.450Z,23.48
2023-03-02T12:16:43.677Z,19.48
2023-03-02T12:19:16.413Z,13.27
2023-03-02T12:22:06.930Z,16.92
2023-03-02T12:24:36.196Z,19.77
2023-03-02T12:27:10.439Z,12.00
2023-03-02T12:29:42.001Z,11.68
2023-03-02T12:32:23.644Z,12.18
2023-03-02T12:35:01.977Z,13.32
2023-03-02T12:37:36.062Z,11.15
2023-03-02T12:40:39.709Z,10.75
2023-03-02T12:43:16.702Z,8.77
2023-03-02T12:46:15.923Z,11.70
2023-03-02T12:49:06.085Z,12.20
2023-03-02T12:51:43.524Z,12.60
2023-03-02T12:54:16.651Z,11.73
2023-03-02T12:56:44.606Z,10.30
2023-03-02T12:59:26.223Z,11.18
2023-03-02T13:02:36.635Z,18.20
2023-03-02T13:05:07.435Z,18.73
2023-03-02T13:07:51.490Z,19.08
2023-03-02T13:13:00.012Z,16.13
2023-03-02T13:15:27.549Z,26.33
2023-03-02T13:17:59.855Z,21.02
2023-03-02T13:20:29.709Z,17.38
2023-03-02T13:22:57.568Z,16.38
2023-03-02T13:25:30.189Z,16.67
2023-03-02T13:28:07.469Z,18.58
2023-03-02T13:30:47.667Z,15.05
2023-03-02T13:33:23.656Z,17.33
2023-03-02T13:35:51.330Z,15.55
2023-03-02T13:38:21.590Z,17.23
2023-03-02T13:40:51.552Z,18.60
2023-03-02T13:43:34.652Z,19.77
2023-03-02T13:46:07.651Z,18.80
2023-03-02T13:48:34.833Z,16.45
2023-03-02T13:51:16.945Z,17.52
2023-03-02T13:53:56.123Z,16.27
2023-03-02T13:56:38.103Z,16.25
2023-03-02T13:59:05.565Z,15.95
2023-03-02T14:01:32.696Z,15.70
2023-03-02T14:04:01.836Z,12.90
2023-03-02T14:06:28.938Z,19.27
2023-03-02T14:08:55.939Z,12.98
2023-03-02T14:11:23.026Z,15.20
2023-03-02T14:13:54.363Z,15.50
2023-03-02T14:16:24.422Z,14.85
2023-03-02T14:18:52.692Z,17.50
2023-03-02T14:21:22.573Z,12.77
2023-03-02T14:23:52.036Z,12.88
2023-03-02T14:26:43.881Z,12.95
2023-03-02T14:29:27.520Z,13.45
2023-03-02T14:31:56.055Z,19.75
2023-03-02T14:34:23.398Z,16.85
2023-03-02T14:36:54.387Z,11.65
2023-03-02T14:39:32.095Z,15.68
2023-03-02T14:41:59.455Z,16.33
2023-03-02T14:44:27.361Z,13.55
2023-03-02T14:46:54.579Z,16.00
2023-03-02T14:49:25.180Z,11.68
2023-03-02T14:52:06.701Z,11.93
2023-03-02T14:54:44.853Z,11.95
2023-03-02T14:57:35.387Z,12.95
2023-03-02T15:00:02.733Z,12.80
2023-03-02T15:02:29.859Z,13.55
2023-03-02T15:04:58.358Z,13.88
2023-03-02T15:07:28.398Z,12.05
2023-03-02T15:09:57.458Z,10.32
2023-03-02T15:12:24.933Z,12.20
2023-03-02T15:14:52.076Z,13.75
2023-03-02T15:17:20.578Z,15.00
2023-03-02T15:19:47.727Z,14.52
2023-03-02T15:22:14.850Z,16.45
2023-03-02T15:24:41.975Z,17.08
2023-03-02T15:27:09.173Z,14.07
2023-03-02T15:29:36.287Z,15.13
2023-03-02T15:32:03.601Z,12.98
2023-03-02T15:34:30.806Z,12.57
2023-03-02T15:37:02.180Z,16.00
2023-03-02T15:39:29.301Z,16.17
2023-03-02T15:41:56.433Z,12.20
2023-03-02T15:44:24.415Z,14.82
2023-03-02T15:46:56.297Z,13.48
2023-03-02T15:49:24.731Z,15.65
2023-03-02T15:51:52.148Z,10.88
2023-03-02T15:54:19.517Z,17.70
2023-03-02T15:56:52.015Z,11.82
2023-03-02T15:59:26.458Z,11.13
2023-03-02T16:01:59.070Z,11.20
2023-03-02T16:04:27.519Z,12.02
2023-03-02T16:06:55.078Z,14.27
2023-03-02T16:09:23.746Z,13.88
2023-03-02T16:11:51.560Z,13.88
2023-03-02T16:14:18.724Z,16.45
2023-03-02T16:16:46.616Z,11.73
2023-03-02T16:19:18.793Z,17.33
2023-03-02T16:21:46.921Z,15.07
2023-03-02T16:24:16.127Z,15.90
2023-03-02T16:26:43.340Z,15.45
2023-03-02T16:29:11.960Z,17.70
2023-03-02T16:31:40.244Z,16.45
2023-03-02T16:34:09.134Z,15.90
2023-03-02T16:36:38.530Z,23.70
2023-03-02T16:39:06.778Z,18.02
2023-03-02T16:41:34.227Z,16.70
2023-03-02T16:44:02.168Z,17.05
2023-03-02T16:46:32.411Z,16.50
2023-03-02T16:48:59.489Z,18.33
2023-03-02T16:51:28.758Z,20.33
2023-03-02T16:53:55.834Z,18.50
2023-03-02T16:56:22.864Z,16.70
2023-03-02T16:58:50.028Z,17.30
2023-03-02T17:01:19.646Z,22.83
2023-03-02T17:03:47.976Z,19.75
2023-03-02T17:06:17.056Z,17.63
2023-03-02T17:08:44.353Z,18.77
2023-03-02T17:11:11.878Z,16.83
2023-03-02T17:13:39.244Z,21.35
2023-03-02T17:16:06.661Z,19.13
2023-03-02T17:18:34.282Z,16.50
2023-03-02T17:21:02.074Z,13.57
2023-03-02T17:23:29.226Z,19.23
2023-03-02T17:25:56.257Z,21.13
2023-03-02T17:28:23.858Z,16.27
2023-03-02T17:30:51.314Z,19.50
2023-03-02T17:33:18.558Z,15.70
2023-03-02T17:35:46.312Z,15.70
2023-03-02T17:38:15.033Z,17.23
2023-03-02T17:40:42.987Z,17.05
2023-03-02T17:43:11.419Z,18.25
2023-03-02T17:45:38.996Z,18.42
2023-03-02T17:48:06.097Z,17.20
2023-03-02T17:50:33.138Z,13.32
2023-03-02T17:53:00.408Z,14.82
2023-03-02T17:55:28.516Z,15.45
2023-03-02T17:57:55.606Z,15.90
2023-03-02T18:00:24.011Z,15.27
2023-03-02T18:02:52.098Z,15.27
2023-03-02T18:05:19.479Z,17.70
2023-03-02T18:07:46.582Z,19.75
2023-03-02T18:10:14.083Z,18.92
2023-03-02T18:12:41.159Z,16.88
2023-03-02T18:15:08.726Z,16.85
2023-03-02T18:17:35.813Z,14.20
2023-03-02T18:20:04.129Z,15.80
2023-03-02T18:22:31.245Z,15.27
2023-03-02T18:25:02.067Z,15.77
2023-03-02T18:27:29.101Z,16.45
2023-03-02T18:29:56.226Z,13.80
2023-03-02T18:32:23.369Z,14.00
2023-03-02T18:34:50.491Z,13.57
2023-03-02T18:37:17.561Z,15.02
2023-03-02T18:39:45.067Z,15.73
2023-03-02T18:42:12.789Z,15.20
2023-03-02T18:44:40.054Z,18.88
2023-03-02T18:47:07.641Z,11.85
2023-03-02T18:49:34.898Z,16.10
2023-03-02T18:52:06.739Z,12.70
2023-03-02T18:54:33.904Z,16.52
2023-03-02T18:57:01.939Z,16.05
2023-03-02T18:59:29.531Z,15.18
2023-03-02T19:01:57.754Z,19.08
2023-03-02T19:04:26.501Z,16.00
2023-03-02T19:06:56.117Z,16.45
2023-03-02T19:09:23.700Z,19.05
2023-03-02T19:11:50.764Z,13.50
2023-03-02T19:14:18.249Z,19.27
2023-03-02T19:16:46.417Z,15.60
2023-03-02T19:19:13.670Z,17.90
2023-03-02T19:21:40.834Z,20.08
2023-03-02T19:24:08.553Z,20.38
2023-03-02T19:26:35.938Z,17.30
2023-03-02T19:29:03.504Z,19.90
2023-03-02T19:31:31.390Z,21.20
2023-03-02T19:34:00.103Z,15.75
2023-03-02T19:36:27.749Z,14.68
2023-03-02T19:38:54.827Z,16.23
2023-03-02T19:41:22.929Z,16.45
2023-03-02T19:43:52.000Z,18.60
2023-03-02T19:46:19.326Z,16.77
2023-03-02T19:48:46.538Z,20.38
2023-03-02T19:51:15.434Z,17.85
2023-03-02T19:53:43.494Z,15.38
2023-03-02T19:56:14.379Z,18.63
2023-03-02T19:58:47.526Z,20.30
2023-03-02T20:01:21.943Z,20.77
2023-03-02T20:03:54.304Z,17.65
2023-03-02T20:06:24.974Z,21.02
2023-03-02T20:08:52.577Z,19.60
2023-03-02T20:11:19.669Z,17.00
2023-03-02T20:13:48.161Z,18.83
2023-03-02T20:16:15.358Z,18.80
2023-03-02T20:18:42.844Z,19.15
2023-03-02T20:21:09.960Z,17.42
2023-03-02T20:23:37.139Z,21.58
2023-03-02T20:26:05.150Z,20.35
2023-03-02T20:28:33.059Z,26.58
2023-03-02T20:31:07.032Z,23.40
2023-03-02T20:33:37.614Z,26.90
2023-03-02T20:36:05.585Z,24.27
2023-03-02T20:38:39.632Z,22.98
2023-03-02T20:41:07.589Z,23.40
2023-03-02T20:43:34.977Z,22.38
2023-03-02T20:46:02.328Z,24.08
2023-03-02T20:48:29.826Z,27.30
2023-03-02T20:50:57.711Z,22.13
2023-03-02T20:53:25.963Z,22.85
2023-03-02T20:55:53.878Z,23.05
2023-03-02T20:58:23.951Z,22.30
2023-03-02T21:00:51.162Z,28.25
2023-03-02T21:03:18.237Z,26.83
2023-03-02T21:05:45.656Z,29.10
2023-03-02T21:08:14.910Z,29.83
2023-03-02T21:10:44.185Z,26.45
2023-03-02T21:13:12.052Z,29.25
2023-03-02T21:15:40.964Z,26.95
2023-03-02T21:18:08.279Z,29.83
2023-03-02T21:20:39.056Z,29.05
2023-03-02T21:23:06.557Z,26.42
2023-03-02T21:25:33.695Z,28.30
2023-03-02T21:28:01.066Z,29.95
2023-03-02T21:30:33.872Z,28.98
2023-03-02T21:33:01.279Z,27.13
2023-03-02T21:35:29.755Z,28.25
2023-03-02T21:38:04.170Z,28.60
2023-03-02T21:40:35.576Z,33.67
2023-03-02T21:43:05.373Z,30.20
2023-03-02T21:45:33.136Z,33.05
2023-03-02T21:48:00.317Z,32.38
2023-03-02T21:50:30.126Z,31.13
2023-03-02T21:52:59.323Z,30.70
2023-03-02T21:55:30.972Z,31.00
2023-03-02T21:57:59.646Z,27.02
2023-03-02T22:00:30.954Z,30.60
2023-03-02T22:02:59.760Z,30.83
2023-03-02T22:05:27.672Z,32.28
2023-03-02T22:07:55.241Z,31.17
2023-03-02T22:10:43.654Z,29.83
2023-03-02T22:13:30.642Z,27.73
2023-03-02T22:16:24.030Z,29.77
2023-03-02T22:18:57.534Z,28.97
2023-03-02T22:21:37.536Z,28.90
2023-03-02T22:24:23.673Z,24.60
2023-03-02T22:26:59.112Z,26.90
2023-03-02T22:29:30.212Z,25.10
2023-03-02T22:32:12.781Z,28.60
2023-03-02T22:34:42.817Z,23.27
2023-03-02T22:37:17.472Z,21.55
2023-03-02T22:39:45.199Z,20.55
2023-03-02T22:42:14.732Z,25.55
2023-03-02T22:44:42.354Z,19.98
2023-03-02T22:47:19.134Z,22.52
2023-03-02T22:49:47.656Z,26.60
2023-03-02T22:52:17.624Z,20.35
2023-03-02T22:54:45.645Z,21.02
2023-03-02T22:57:28.925Z,20.30
2023-03-02T23:00:19.058Z,21.13
2023-03-02T23:02:46.407Z,20.65
2023-03-02T23:05:27.656Z,20.92
2023-03-02T23:08:27.653Z,23.05
2023-03-02T23:11:00.234Z,18.40
2023-03-02T23:13:45.980Z,24.90
2023-03-02T23:16:20.039Z,20.42
2023-03-02T23:18:48.355Z,20.95
2023-03-02T23:21:22.639Z,25.08
2023-03-02T23:23:50.466Z,20.15
2023-03-02T23:26:19.242Z,18.48
2023-03-02T23:28:48.081Z,18.88
2023-03-02T23:31:16.318Z,18.73
2023-03-02T23:33:43.372Z,20.45
2023-03-02T23:36:11.203Z,17.73
2023-03-02T23:38:39.048Z,23.10
2023-03-02T23:41:06.708Z,24.10
2023-03-02T23:43:34.822Z,20.35
2023-03-02T23:46:02.242Z,25.52
2023-03-02T23:48:29.450Z,24.10
2023-03-02T23:50:59.323Z,19.45
2023-03-02T23:53:26.355Z,17.67
2023-03-02T23:55:55.033Z,23.45
2023-03-02T23:58:22.592Z,15.77
